createdAt,value
2018-09-18T00:01:39.643Z,15.70
2018-09-18T00:06:33.884Z,15.70
2018-09-18T00:11:28.372Z,15.60
2018-09-18T00:16:23.711Z,15.60
2018-09-18T00:21:18.484Z,15.50
2018-09-18T00:26:12.751Z,15.50
2018-09-18T00:31:08.794Z,15.50
2018-09-18T00:36:04.620Z,15.40
2018-09-18T00:40:59.236Z,15.40
2018-09-18T00:45:53.616Z,15.40
2018-09-18T00:50:48.017Z,15.40
2018-09-18T00:55:42.964Z,15.40
2018-09-18T01:00:37.584Z,15.40
2018-09-18T01:05:32.579Z,15.30
2018-09-18T01:10:26.963Z,15.30
2018-09-18T01:15:21.516Z,15.20
2018-09-18T01:20:16.891Z,15.20
2018-09-18T01:25:12.323Z,15.10
2018-09-18T01:30:07.097Z,15.10
2018-09-18T01:35:01.815Z,15.00
2018-09-18T01:39:56.321Z,15.00
2018-09-18T01:44:50.788Z,15.00
2018-09-18T01:49:45.484Z,14.90
2018-09-18T01:54:40.002Z,14.90
2018-09-18T01:59:34.520Z,14.80
2018-09-18T02:04:28.792Z,14.80
2018-09-18T02:21:17.078Z,14.80
2018-09-18T02:26:11.742Z,14.80
2018-09-18T02:31:06.604Z,14.70
2018-09-18T02:36:01.056Z,14.70
2018-09-18T02:40:55.467Z,14.70
2018-09-18T02:45:51.321Z,14.60
2018-09-18T02:50:45.696Z,14.60
2018-09-18T02:55:40.143Z,14.50
2018-09-18T03:00:34.809Z,14.50
2018-09-18T03:05:29.470Z,14.50
2018-09-18T03:10:23.774Z,14.50
2018-09-18T03:15:18.131Z,14.50
2018-09-18T03:20:12.566Z,14.50
2018-09-18T03:25:08.444Z,14.50
2018-09-18T03:30:22.806Z,14.40
2018-09-18T03:35:17.479Z,14.50
2018-09-18T03:40:11.426Z,14.40
2018-09-18T03:45:06.626Z,14.40
2018-09-18T03:50:01.100Z,14.40
2018-09-18T03:54:55.437Z,14.30
2018-09-18T03:59:49.368Z,14.30
2018-09-18T04:04:51.184Z,14.30
2018-09-18T04:09:53.091Z,14.30
2018-09-18T04:14:47.323Z,14.20
2018-09-18T04:19:41.486Z,14.20
2018-09-18T04:24:36.229Z,14.20
2018-09-18T04:29:30.250Z,14.20
2018-09-18T04:34:31.497Z,14.10
2018-09-18T04:39:47.805Z,14.10
2018-09-18T04:44:57.363Z,14.10
2018-09-18T04:50:06.821Z,14.10
2018-09-18T04:55:09.336Z,14.10
2018-09-18T05:00:03.637Z,14.10
2018-09-18T05:04:58.006Z,14.20
2018-09-18T05:09:52.688Z,14.20
2018-09-18T05:14:47.287Z,14.40
2018-09-18T05:19:42.612Z,14.50
2018-09-18T05:24:38.557Z,14.70
2018-09-18T05:29:35.658Z,14.90
2018-09-18T05:34:33.125Z,15.00
2018-09-18T05:39:29.769Z,15.30
2018-09-18T05:44:34.785Z,15.30
2018-09-18T05:49:37.643Z,15.60
2018-09-18T05:54:36.266Z,15.80
2018-09-18T05:59:36.164Z,16.10
2018-09-18T06:04:34.893Z,16.30
2018-09-18T06:09:30.886Z,16.70
2018-09-18T06:14:33.823Z,16.50
2018-09-18T06:19:30.824Z,17.10
2018-09-18T06:24:26.409Z,17.90
2018-09-18T06:29:21.287Z,18.60
2018-09-18T06:34:16.376Z,19.50
2018-09-18T06:39:12.782Z,20.60
2018-09-18T06:44:07.442Z,20.40
2018-09-18T06:49:02.149Z,20.10
2018-09-18T06:53:58.281Z,19.70
2018-09-18T06:58:52.295Z,19.90
2018-09-18T07:03:47.596Z,19.80
2018-09-18T07:08:47.547Z,19.80
2018-09-18T07:13:43.089Z,20.00
2018-09-18T07:18:40.556Z,20.30
2018-09-18T07:23:35.448Z,20.80
2018-09-18T07:28:30.458Z,21.30
2018-09-18T07:33:24.769Z,21.70
2018-09-18T07:38:27.350Z,22.20
2018-09-18T07:43:29.776Z,23.40
2018-09-18T07:48:32.292Z,25.00
2018-09-18T07:53:34.811Z,26.10
2018-09-18T07:58:37.012Z,26.90
2018-09-18T08:03:33.154Z,28.50
2018-09-18T08:08:44.530Z,29.90
2018-09-18T08:13:56.464Z,32.50
2018-09-18T08:19:13.805Z,31.70
2018-09-18T08:24:29.757Z,31.10
2018-09-18T08:29:48.158Z,30.40
2018-09-18T08:34:44.172Z,30.70
2018-09-18T08:39:39.569Z,29.40
2018-09-18T08:44:35.968Z,27.30
2018-09-18T08:49:30.783Z,26.30
2018-09-18T08:54:26.357Z,25.40
2018-09-18T08:59:21.419Z,25.60
2018-09-18T09:04:16.539Z,26.70
2018-09-18T09:09:14.662Z,27.20
2018-09-18T09:14:17.054Z,27.80
2018-09-18T09:19:23.319Z,31.90
2018-09-18T09:24:18.938Z,33.40
2018-09-18T09:29:13.979Z,34.50
2018-09-18T09:34:08.598Z,34.50
2018-09-18T09:39:19.673Z,35.70
2018-09-18T09:44:14.762Z,37.30
2018-09-18T09:49:10.157Z,37.60
2018-09-18T09:54:06.428Z,37.40
2018-09-18T09:59:04.394Z,36.40
2018-09-18T10:03:59.589Z,38.00
2018-09-18T10:08:55.156Z,40.30
2018-09-18T10:13:52.761Z,39.30
2018-09-18T10:18:49.251Z,39.40
2018-09-18T10:23:44.067Z,38.50
2018-09-18T10:28:39.890Z,39.60
2018-09-18T10:33:34.262Z,41.20
2018-09-18T10:38:29.905Z,42.70
2018-09-18T10:43:24.185Z,40.70
2018-09-18T10:48:19.836Z,41.40
2018-09-18T10:53:14.942Z,42.30
2018-09-18T10:58:11.700Z,40.40
2018-09-18T11:03:06.285Z,41.40
2018-09-18T11:08:03.975Z,39.10
2018-09-18T11:12:58.644Z,40.40
2018-09-18T11:17:54.986Z,38.40
2018-09-18T11:22:50.935Z,38.20
2018-09-18T11:27:45.521Z,35.70
2018-09-18T11:32:40.759Z,33.80
2018-09-18T11:37:43.752Z,32.70
2018-09-18T11:42:46.859Z,31.80
2018-09-18T11:47:41.288Z,31.20
2018-09-18T11:52:37.351Z,30.60
2018-09-18T11:57:31.917Z,30.10
2018-09-18T12:02:26.732Z,30.30
2018-09-18T12:07:29.915Z,30.30
2018-09-18T12:12:27.204Z,30.10
2018-09-18T12:17:23.077Z,29.80
2018-09-18T12:22:21.062Z,29.70
2018-09-18T12:27:16.102Z,29.70
2018-09-18T12:32:11.116Z,29.70
2018-09-18T12:37:08.471Z,29.60
2018-09-18T12:42:02.562Z,29.80
2018-09-18T12:47:00.239Z,29.80
2018-09-18T12:51:55.203Z,30.00
2018-09-18T12:56:50.054Z,30.10
2018-09-18T13:01:44.475Z,29.90
2018-09-18T13:06:39.316Z,30.10
2018-09-18T13:11:35.224Z,30.10
2018-09-18T13:16:30.465Z,29.90
2018-09-18T13:21:26.057Z,29.80
2018-09-18T13:26:20.411Z,29.70
2018-09-18T13:31:21.743Z,29.70
2018-09-18T13:36:24.721Z,29.80
2018-09-18T13:41:19.694Z,29.90
2018-09-18T13:46:14.334Z,29.80
2018-09-18T13:51:09.553Z,29.80
2018-09-18T13:56:03.766Z,29.60
2018-09-18T14:00:58.102Z,29.70
2018-09-18T14:05:53.520Z,29.80
2018-09-18T14:10:47.814Z,29.80
2018-09-18T14:15:42.821Z,29.80
2018-09-18T14:20:37.999Z,29.60
2018-09-18T14:25:32.180Z,29.60
2018-09-18T14:30:26.793Z,29.60
2018-09-18T14:35:22.011Z,29.60
2018-09-18T14:40:19.361Z,29.50
2018-09-18T14:45:13.837Z,29.50
2018-09-18T14:50:08.581Z,29.60
2018-09-18T14:55:02.693Z,29.50
2018-09-18T15:00:05.074Z,29.40
2018-09-18T15:04:59.825Z,29.40
2018-09-18T15:09:53.588Z,29.30
2018-09-18T15:14:48.813Z,29.20
2018-09-18T15:19:43.842Z,29.20
2018-09-18T15:24:45.923Z,29.10
2018-09-18T15:29:47.760Z,29.00
2018-09-18T15:34:50.121Z,29.00
2018-09-18T15:39:51.779Z,28.90
2018-09-18T15:44:46.468Z,28.90
2018-09-18T15:49:41.381Z,28.80
2018-09-18T15:54:36.518Z,28.60
2018-09-18T15:59:31.260Z,28.60
2018-09-18T16:04:26.335Z,28.50
2018-09-18T16:09:20.868Z,28.30
2018-09-18T16:14:15.353Z,28.40
2018-09-18T16:19:10.082Z,28.30
2018-09-18T16:24:05.069Z,28.20
2018-09-18T16:28:59.110Z,28.10
2018-09-18T16:33:53.424Z,27.90
2018-09-18T16:38:47.922Z,27.80
2018-09-18T16:43:42.268Z,27.70
2018-09-18T16:48:36.583Z,27.60
2018-09-18T16:53:32.525Z,27.40
2018-09-18T16:58:27.089Z,27.30
2018-09-18T17:03:29.705Z,27.00
2018-09-18T17:08:32.742Z,26.60
2018-09-18T17:13:28.232Z,26.40
2018-09-18T17:18:22.833Z,26.20
2018-09-18T17:23:17.856Z,26.10
2018-09-18T17:28:12.367Z,25.90
2018-09-18T17:33:07.141Z,25.70
2018-09-18T17:38:02.452Z,25.70
2018-09-18T17:42:56.968Z,25.50
2018-09-18T17:47:51.611Z,25.40
2018-09-18T17:52:53.847Z,25.30
2018-09-18T17:57:55.714Z,25.30
2018-09-18T18:02:51.569Z,25.20
2018-09-18T18:07:46.295Z,25.10
2018-09-18T18:12:40.956Z,24.90
2018-09-18T18:17:50.671Z,24.70
2018-09-18T18:22:47.102Z,24.40
2018-09-18T18:27:49.857Z,24.30
2018-09-18T18:32:52.111Z,24.30
2018-09-18T18:37:54.791Z,24.20
2018-09-18T18:42:56.838Z,23.90
2018-09-18T18:47:58.813Z,23.70
2018-09-18T18:52:53.875Z,23.50
2018-09-18T18:57:48.606Z,23.40
2018-09-18T19:02:44.985Z,23.20
2018-09-18T19:07:39.279Z,23.10
2018-09-18T19:12:41.907Z,22.90
2018-09-18T19:18:01.105Z,22.70
2018-09-18T19:23:20.679Z,22.60
2018-09-18T19:28:15.946Z,22.60
2018-09-18T19:33:10.622Z,22.40
2018-09-18T19:38:05.336Z,22.30
2018-09-18T19:43:12.894Z,22.20
2018-09-18T19:48:07.224Z,22.10
2018-09-18T19:53:02.226Z,22.00
2018-09-18T19:57:56.929Z,22.00
2018-09-18T20:02:52.417Z,21.90
2018-09-18T20:07:48.997Z,21.70
2018-09-18T20:12:44.036Z,21.70
2018-09-18T20:17:39.355Z,21.50
2018-09-18T20:22:33.797Z,21.40
2018-09-18T20:27:28.465Z,21.30
2018-09-18T20:32:46.678Z,21.30
2018-09-18T20:37:43.673Z,21.20
2018-09-18T20:42:40.006Z,21.10
2018-09-18T20:47:34.556Z,20.90
2018-09-18T20:52:29.090Z,20.80
2018-09-18T20:57:24.076Z,20.70
2018-09-18T21:02:19.512Z,20.60
2018-09-18T21:07:15.099Z,20.50
2018-09-18T21:12:09.972Z,20.50
2018-09-18T21:17:06.387Z,20.40
2018-09-18T21:22:00.672Z,20.30
2018-09-18T21:26:55.745Z,20.20
2018-09-18T21:31:52.025Z,20.10
2018-09-18T21:36:54.186Z,20.10
2018-09-18T21:41:50.084Z,20.20
2018-09-18T21:46:45.058Z,20.10
2018-09-18T21:51:39.985Z,20.00
2018-09-18T21:56:34.221Z,20.00
2018-09-18T22:01:29.436Z,19.90
2018-09-18T22:06:24.885Z,19.70
2018-09-18T22:11:20.636Z,19.60
2018-09-18T22:50:22.097Z,19.20
2018-09-18T22:55:17.105Z,19.00
2018-09-18T23:00:12.271Z,18.90
2018-09-18T23:05:07.616Z,18.80
2018-09-18T23:10:02.515Z,18.80
2018-09-18T23:14:56.719Z,18.70
2018-09-18T23:19:51.148Z,18.80
2018-09-18T23:24:45.810Z,18.70
2018-09-18T23:29:48.310Z,18.70
2018-09-18T23:34:42.933Z,18.70
2018-09-18T23:39:37.043Z,18.70
2018-09-18T23:44:31.056Z,18.70
2018-09-18T23:49:25.625Z,18.60
2018-09-18T23:54:21.175Z,18.70
2018-09-18T23:59:16.771Z,18.60
